Terminal Aerodrome Forecast
Issued by NWS

Home | Current Version | Previous Version | Text Only | Print | Product List | Glossary On
Versions: 1 2 3 4 5 6 7 8 9 10 11 12 13 14 15 16
379
FTUS46 KSGX 272320
TAFONT
TAF
KONT 272320Z 2800/2906 26010G18KT P6SM SCT120
     FM280400 VRB04KT P6SM BKN100
     FM282100 26011G19KT P6SM BKN100
     FM290400 VRB04KT P6SM SCT100=

USA.gov is the U.S. government's official web portal to all federal, state and local government web resources and services.